sensor_id;sensor_type;location;lat;lon;timestamp;P1;durP1;ratioP1;P2;durP2;ratioP2
13568;SDS011;6856;51.460;7.158;2023-07-08T00:00:23;1.77;;;1.40;;
13568;SDS011;6856;51.460;7.158;2023-07-08T00:02:57;2.83;;;1.42;;
13568;SDS011;6856;51.460;7.158;2023-07-08T00:05:35;1.65;;;1.35;;
13568;SDS011;6856;51.460;7.158;2023-07-08T00:08:10;2.28;;;1.65;;
13568;SDS011;6856;51.460;7.158;2023-07-08T00:10:46;1.30;;;1.20;;
13568;SDS011;6856;51.460;7.158;2023-07-08T00:13:21;1.45;;;1.15;;
13568;SDS011;6856;51.460;7.158;2023-07-08T00:15:54;3.00;;;1.50;;
13568;SDS011;6856;51.460;7.158;2023-07-08T00:18:30;1.77;;;1.52;;
13568;SDS011;6856;51.460;7.158;2023-07-08T00:21:07;2.45;;;1.38;;
13568;SDS011;6856;51.460;7.158;2023-07-08T00:23:48;2.00;;;1.50;;
13568;SDS011;6856;51.460;7.158;2023-07-08T00:26:24;3.20;;;1.90;;
13568;SDS011;6856;51.460;7.158;2023-07-08T00:29:00;2.15;;;1.40;;
13568;SDS011;6856;51.460;7.158;2023-07-08T00:31:35;2.53;;;1.67;;
13568;SDS011;6856;51.460;7.158;2023-07-08T00:34:09;2.00;;;1.50;;
13568;SDS011;6856;51.460;7.158;2023-07-08T00:36:44;1.77;;;1.48;;
13568;SDS011;6856;51.460;7.158;2023-07-08T00:39:20;1.83;;;1.35;;
13568;SDS011;6856;51.460;7.158;2023-07-08T00:42:10;2.20;;;1.60;;
13568;SDS011;6856;51.460;7.158;2023-07-08T00:44:49;2.35;;;1.35;;
13568;SDS011;6856;51.460;7.158;2023-07-08T00:47:23;2.33;;;1.40;;
13568;SDS011;6856;51.460;7.158;2023-07-08T00:49:59;2.83;;;1.30;;
13568;SDS011;6856;51.460;7.158;2023-07-08T00:52:41;2.22;;;1.80;;
13568;SDS011;6856;51.460;7.158;2023-07-08T00:55:18;1.83;;;1.40;;
13568;SDS011;6856;51.460;7.158;2023-07-08T00:57:52;1.83;;;1.25;;
13568;SDS011;6856;51.460;7.158;2023-07-08T01:00:29;1.67;;;1.38;;
13568;SDS011;6856;51.460;7.158;2023-07-08T01:03:04;2.22;;;1.52;;
13568;SDS011;6856;51.460;7.158;2023-07-08T01:05:38;1.95;;;1.50;;
13568;SDS011;6856;51.460;7.158;2023-07-08T01:08:14;4.13;;;1.60;;
13568;SDS011;6856;51.460;7.158;2023-07-08T01:10:50;2.22;;;1.52;;
13568;SDS011;6856;51.460;7.158;2023-07-08T01:13:32;2.10;;;1.45;;
13568;SDS011;6856;51.460;7.158;2023-07-08T01:16:13;2.38;;;1.40;;
13568;SDS011;6856;51.460;7.158;2023-07-08T01:18:49;2.55;;;1.67;;
13568;SDS011;6856;51.460;7.158;2023-07-08T01:21:28;1.98;;;1.42;;
13568;SDS011;6856;51.460;7.158;2023-07-08T01:24:09;1.98;;;1.38;;
13568;SDS011;6856;51.460;7.158;2023-07-08T01:26:46;2.90;;;1.50;;
13568;SDS011;6856;51.460;7.158;2023-07-08T01:29:20;1.80;;;1.45;;
13568;SDS011;6856;51.460;7.158;2023-07-08T01:31:54;1.80;;;1.35;;
13568;SDS011;6856;51.460;7.158;2023-07-08T01:34:30;2.63;;;1.58;;
13568;SDS011;6856;51.460;7.158;2023-07-08T01:37:06;2.40;;;1.60;;
13568;SDS011;6856;51.460;7.158;2023-07-08T01:39:50;2.30;;;1.67;;
13568;SDS011;6856;51.460;7.158;2023-07-08T01:42:24;2.10;;;1.40;;
13568;SDS011;6856;51.460;7.158;2023-07-08T01:44:58;1.63;;;1.25;;
13568;SDS011;6856;51.460;7.158;2023-07-08T01:47:33;2.13;;;1.45;;
13568;SDS011;6856;51.460;7.158;2023-07-08T01:50:08;1.83;;;1.50;;
13568;SDS011;6856;51.460;7.158;2023-07-08T01:52:43;2.63;;;1.63;;
13568;SDS011;6856;51.460;7.158;2023-07-08T01:55:23;1.90;;;1.33;;
13568;SDS011;6856;51.460;7.158;2023-07-08T01:58:00;3.22;;;1.55;;
13568;SDS011;6856;51.460;7.158;2023-07-08T02:00:34;2.15;;;1.58;;
13568;SDS011;6856;51.460;7.158;2023-07-08T02:03:10;2.50;;;1.65;;
13568;SDS011;6856;51.460;7.158;2023-07-08T02:05:44;2.58;;;1.40;;
13568;SDS011;6856;51.460;7.158;2023-07-08T02:08:18;2.33;;;1.55;;
13568;SDS011;6856;51.460;7.158;2023-07-08T02:10:55;2.00;;;1.45;;
13568;SDS011;6856;51.460;7.158;2023-07-08T02:13:30;4.30;;;1.50;;
13568;SDS011;6856;51.460;7.158;2023-07-08T02:16:06;1.83;;;1.40;;
13568;SDS011;6856;51.460;7.158;2023-07-08T02:18:40;1.40;;;1.30;;
13568;SDS011;6856;51.460;7.158;2023-07-08T02:21:15;1.70;;;1.40;;
13568;SDS011;6856;51.460;7.158;2023-07-08T02:23:49;1.92;;;1.45;;
13568;SDS011;6856;51.460;7.158;2023-07-08T02:26:26;1.98;;;1.40;;
13568;SDS011;6856;51.460;7.158;2023-07-08T02:29:07;2.10;;;1.63;;
13568;SDS011;6856;51.460;7.158;2023-07-08T02:31:42;1.80;;;1.52;;
13568;SDS011;6856;51.460;7.158;2023-07-08T02:34:16;2.00;;;1.52;;
13568;SDS011;6856;51.460;7.158;2023-07-08T02:36:53;1.65;;;1.40;;
13568;SDS011;6856;51.460;7.158;2023-07-08T02:39:31;2.13;;;1.38;;
13568;SDS011;6856;51.460;7.158;2023-07-08T02:42:09;2.30;;;1.70;;
13568;SDS011;6856;51.460;7.158;2023-07-08T02:44:43;2.33;;;1.60;;
13568;SDS011;6856;51.460;7.158;2023-07-08T02:47:17;3.42;;;1.98;;
13568;SDS011;6856;51.460;7.158;2023-07-08T02:49:52;2.25;;;1.52;;
13568;SDS011;6856;51.460;7.158;2023-07-08T02:52:27;1.52;;;1.20;;
13568;SDS011;6856;51.460;7.158;2023-07-08T02:55:01;2.17;;;1.60;;
13568;SDS011;6856;51.460;7.158;2023-07-08T02:57:36;2.50;;;1.60;;
13568;SDS011;6856;51.460;7.158;2023-07-08T03:00:11;2.28;;;1.50;;
13568;SDS011;6856;51.460;7.158;2023-07-08T03:02:46;1.52;;;1.23;;
13568;SDS011;6856;51.460;7.158;2023-07-08T03:05:21;2.58;;;1.60;;
13568;SDS011;6856;51.460;7.158;2023-07-08T03:07:55;1.80;;;1.40;;
13568;SDS011;6856;51.460;7.158;2023-07-08T03:10:29;2.67;;;1.50;;
13568;SDS011;6856;51.460;7.158;2023-07-08T03:13:06;2.35;;;1.60;;
13568;SDS011;6856;51.460;7.158;2023-07-08T03:15:39;1.85;;;1.45;;
13568;SDS011;6856;51.460;7.158;2023-07-08T03:18:17;2.67;;;1.75;;
13568;SDS011;6856;51.460;7.158;2023-07-08T03:20:53;2.45;;;1.50;;
13568;SDS011;6856;51.460;7.158;2023-07-08T03:23:29;1.83;;;1.48;;
13568;SDS011;6856;51.460;7.158;2023-07-08T03:26:03;2.72;;;1.60;;
13568;SDS011;6856;51.460;7.158;2023-07-08T03:28:39;2.45;;;1.35;;
13568;SDS011;6856;51.460;7.158;2023-07-08T03:31:15;2.13;;;1.55;;
13568;SDS011;6856;51.460;7.158;2023-07-08T03:33:52;2.17;;;1.58;;
13568;SDS011;6856;51.460;7.158;2023-07-08T03:36:26;2.38;;;1.60;;
13568;SDS011;6856;51.460;7.158;2023-07-08T03:39:01;2.50;;;1.50;;
13568;SDS011;6856;51.460;7.158;2023-07-08T03:41:37;1.70;;;1.42;;
13568;SDS011;6856;51.460;7.158;2023-07-08T03:44:14;4.85;;;1.60;;
13568;SDS011;6856;51.460;7.158;2023-07-08T03:46:49;3.33;;;1.90;;
13568;SDS011;6856;51.460;7.158;2023-07-08T03:49:23;2.63;;;1.65;;
13568;SDS011;6856;51.460;7.158;2023-07-08T03:51:59;1.92;;;1.38;;
13568;SDS011;6856;51.460;7.158;2023-07-08T03:54:33;2.40;;;1.60;;
13568;SDS011;6856;51.460;7.158;2023-07-08T03:57:07;2.72;;;1.42;;
13568;SDS011;6856;51.460;7.158;2023-07-08T03:59:42;2.65;;;1.70;;
13568;SDS011;6856;51.460;7.158;2023-07-08T04:02:20;1.77;;;1.40;;
13568;SDS011;6856;51.460;7.158;2023-07-08T04:04:54;1.95;;;1.58;;
13568;SDS011;6856;51.460;7.158;2023-07-08T04:07:28;2.35;;;1.70;;
13568;SDS011;6856;51.460;7.158;2023-07-08T04:10:01;2.25;;;1.45;;
13568;SDS011;6856;51.460;7.158;2023-07-08T04:12:38;1.52;;;1.23;;
13568;SDS011;6856;51.460;7.158;2023-07-08T04:15:14;1.77;;;1.48;;
13568;SDS011;6856;51.460;7.158;2023-07-08T04:17:57;2.25;;;1.60;;
13568;SDS011;6856;51.460;7.158;2023-07-08T04:20:31;2.22;;;1.60;;
13568;SDS011;6856;51.460;7.158;2023-07-08T04:23:05;2.95;;;1.90;;
13568;SDS011;6856;51.460;7.158;2023-07-08T04:25:46;2.83;;;1.77;;
13568;SDS011;6856;51.460;7.158;2023-07-08T04:28:25;2.35;;;1.70;;
13568;SDS011;6856;51.460;7.158;2023-07-08T04:31:02;2.85;;;1.63;;
13568;SDS011;6856;51.460;7.158;2023-07-08T04:33:36;1.92;;;1.60;;
13568;SDS011;6856;51.460;7.158;2023-07-08T04:36:16;2.17;;;1.73;;
13568;SDS011;6856;51.460;7.158;2023-07-08T04:38:54;1.95;;;1.48;;
13568;SDS011;6856;51.460;7.158;2023-07-08T04:41:29;1.90;;;1.40;;
13568;SDS011;6856;51.460;7.158;2023-07-08T04:44:14;2.50;;;1.50;;
13568;SDS011;6856;51.460;7.158;2023-07-08T04:46:52;2.65;;;1.80;;
13568;SDS011;6856;51.460;7.158;2023-07-08T04:49:29;2.10;;;1.48;;
13568;SDS011;6856;51.460;7.158;2023-07-08T04:52:05;2.45;;;1.60;;
13568;SDS011;6856;51.460;7.158;2023-07-08T04:54:48;2.20;;;1.40;;
13568;SDS011;6856;51.460;7.158;2023-07-08T04:57:22;3.15;;;1.65;;
13568;SDS011;6856;51.460;7.158;2023-07-08T04:59:57;2.10;;;1.65;;
13568;SDS011;6856;51.460;7.158;2023-07-08T05:02:50;3.78;;;2.00;;
13568;SDS011;6856;51.460;7.158;2023-07-08T05:05:26;2.15;;;1.75;;
13568;SDS011;6856;51.460;7.158;2023-07-08T05:08:00;3.10;;;1.55;;
13568;SDS011;6856;51.460;7.158;2023-07-08T05:10:39;2.80;;;1.65;;
13568;SDS011;6856;51.460;7.158;2023-07-08T05:13:19;2.67;;;1.75;;
13568;SDS011;6856;51.460;7.158;2023-07-08T05:15:59;2.17;;;1.70;;
13568;SDS011;6856;51.460;7.158;2023-07-08T05:18:35;2.33;;;1.70;;
13568;SDS011;6856;51.460;7.158;2023-07-08T05:21:14;2.17;;;1.80;;
13568;SDS011;6856;51.460;7.158;2023-07-08T05:23:53;3.05;;;1.75;;
13568;SDS011;6856;51.460;7.158;2023-07-08T05:26:27;2.00;;;1.70;;
13568;SDS011;6856;51.460;7.158;2023-07-08T05:29:04;3.42;;;1.80;;
13568;SDS011;6856;51.460;7.158;2023-07-08T05:31:42;2.35;;;1.70;;
13568;SDS011;6856;51.460;7.158;2023-07-08T05:34:29;3.33;;;1.65;;
13568;SDS011;6856;51.460;7.158;2023-07-08T05:37:26;2.97;;;1.80;;
13568;SDS011;6856;51.460;7.158;2023-07-08T05:40:04;2.50;;;1.73;;
13568;SDS011;6856;51.460;7.158;2023-07-08T05:42:41;2.60;;;1.77;;
13568;SDS011;6856;51.460;7.158;2023-07-08T05:45:15;2.30;;;1.73;;
13568;SDS011;6856;51.460;7.158;2023-07-08T05:47:53;4.40;;;2.00;;
13568;SDS011;6856;51.460;7.158;2023-07-08T05:50:34;2.90;;;1.75;;
13568;SDS011;6856;51.460;7.158;2023-07-08T05:53:09;2.85;;;1.92;;
13568;SDS011;6856;51.460;7.158;2023-07-08T05:55:44;2.17;;;1.73;;
13568;SDS011;6856;51.460;7.158;2023-07-08T05:58:18;2.67;;;1.80;;
13568;SDS011;6856;51.460;7.158;2023-07-08T06:00:57;4.28;;;1.60;;
13568;SDS011;6856;51.460;7.158;2023-07-08T06:03:32;2.70;;;1.70;;
13568;SDS011;6856;51.460;7.158;2023-07-08T06:06:19;4.07;;;2.10;;
13568;SDS011;6856;51.460;7.158;2023-07-08T06:08:55;2.22;;;1.60;;
13568;SDS011;6856;51.460;7.158;2023-07-08T06:11:31;2.58;;;1.92;;
13568;SDS011;6856;51.460;7.158;2023-07-08T06:14:05;2.40;;;1.63;;
13568;SDS011;6856;51.460;7.158;2023-07-08T06:16:40;2.53;;;1.63;;
13568;SDS011;6856;51.460;7.158;2023-07-08T06:19:18;2.85;;;1.90;;
13568;SDS011;6856;51.460;7.158;2023-07-08T06:21:53;4.07;;;1.85;;
13568;SDS011;6856;51.460;7.158;2023-07-08T06:24:49;3.22;;;1.70;;
13568;SDS011;6856;51.460;7.158;2023-07-08T06:27:25;2.35;;;1.77;;
13568;SDS011;6856;51.460;7.158;2023-07-08T06:30:00;2.80;;;2.05;;
13568;SDS011;6856;51.460;7.158;2023-07-08T06:32:33;2.78;;;2.10;;
13568;SDS011;6856;51.460;7.158;2023-07-08T06:35:08;7.63;;;2.20;;
13568;SDS011;6856;51.460;7.158;2023-07-08T06:37:45;2.80;;;2.00;;
13568;SDS011;6856;51.460;7.158;2023-07-08T06:40:24;2.40;;;1.85;;
13568;SDS011;6856;51.460;7.158;2023-07-08T06:42:58;2.88;;;1.90;;
13568;SDS011;6856;51.460;7.158;2023-07-08T06:45:36;3.53;;;2.17;;
13568;SDS011;6856;51.460;7.158;2023-07-08T06:48:13;3.05;;;2.00;;
13568;SDS011;6856;51.460;7.158;2023-07-08T06:50:47;2.88;;;2.03;;
13568;SDS011;6856;51.460;7.158;2023-07-08T06:53:25;3.10;;;1.95;;
13568;SDS011;6856;51.460;7.158;2023-07-08T06:55:59;3.17;;;2.17;;
13568;SDS011;6856;51.460;7.158;2023-07-08T06:58:33;3.53;;;2.03;;
13568;SDS011;6856;51.460;7.158;2023-07-08T07:01:07;2.47;;;1.88;;
13568;SDS011;6856;51.460;7.158;2023-07-08T07:03:42;3.40;;;2.40;;
13568;SDS011;6856;51.460;7.158;2023-07-08T07:06:16;3.40;;;2.17;;
13568;SDS011;6856;51.460;7.158;2023-07-08T07:08:52;3.53;;;2.50;;
13568;SDS011;6856;51.460;7.158;2023-07-08T07:11:26;2.65;;;1.95;;
13568;SDS011;6856;51.460;7.158;2023-07-08T07:14:00;3.42;;;2.33;;
13568;SDS011;6856;51.460;7.158;2023-07-08T07:16:56;4.32;;;2.42;;
13568;SDS011;6856;51.460;7.158;2023-07-08T07:19:42;3.97;;;2.45;;
13568;SDS011;6856;51.460;7.158;2023-07-08T07:22:17;3.95;;;2.00;;
13568;SDS011;6856;51.460;7.158;2023-07-08T07:24:52;4.65;;;2.55;;
13568;SDS011;6856;51.460;7.158;2023-07-08T07:27:26;4.00;;;2.75;;
13568;SDS011;6856;51.460;7.158;2023-07-08T07:30:01;4.60;;;2.40;;
13568;SDS011;6856;51.460;7.158;2023-07-08T07:32:36;3.20;;;2.10;;
13568;SDS011;6856;51.460;7.158;2023-07-08T07:35:10;3.35;;;2.60;;
13568;SDS011;6856;51.460;7.158;2023-07-08T07:37:46;3.30;;;2.20;;
13568;SDS011;6856;51.460;7.158;2023-07-08T07:40:23;6.13;;;2.80;;
13568;SDS011;6856;51.460;7.158;2023-07-08T07:43:01;3.13;;;2.55;;
13568;SDS011;6856;51.460;7.158;2023-07-08T07:45:37;5.13;;;2.83;;
13568;SDS011;6856;51.460;7.158;2023-07-08T07:48:11;3.08;;;2.10;;
13568;SDS011;6856;51.460;7.158;2023-07-08T07:50:45;3.40;;;2.20;;
13568;SDS011;6856;51.460;7.158;2023-07-08T07:53:21;3.75;;;2.67;;
13568;SDS011;6856;51.460;7.158;2023-07-08T07:55:59;3.47;;;2.58;;
13568;SDS011;6856;51.460;7.158;2023-07-08T07:58:36;3.83;;;2.60;;
13568;SDS011;6856;51.460;7.158;2023-07-08T08:01:10;3.60;;;2.58;;
13568;SDS011;6856;51.460;7.158;2023-07-08T08:03:45;4.05;;;2.85;;
13568;SDS011;6856;51.460;7.158;2023-07-08T08:06:22;3.35;;;2.53;;
13568;SDS011;6856;51.460;7.158;2023-07-08T08:08:56;4.47;;;2.80;;
13568;SDS011;6856;51.460;7.158;2023-07-08T08:11:32;6.65;;;3.28;;
13568;SDS011;6856;51.460;7.158;2023-07-08T08:14:06;4.35;;;2.83;;
13568;SDS011;6856;51.460;7.158;2023-07-08T08:16:41;3.72;;;2.60;;
13568;SDS011;6856;51.460;7.158;2023-07-08T08:19:14;3.17;;;2.70;;
13568;SDS011;6856;51.460;7.158;2023-07-08T08:21:49;4.82;;;3.00;;
13568;SDS011;6856;51.460;7.158;2023-07-08T08:24:22;3.90;;;2.72;;
13568;SDS011;6856;51.460;7.158;2023-07-08T08:27:00;4.00;;;2.92;;
13568;SDS011;6856;51.460;7.158;2023-07-08T08:29:34;3.95;;;2.65;;
13568;SDS011;6856;51.460;7.158;2023-07-08T08:32:08;4.47;;;3.20;;
13568;SDS011;6856;51.460;7.158;2023-07-08T08:34:42;3.92;;;2.53;;
13568;SDS011;6856;51.460;7.158;2023-07-08T08:37:18;4.05;;;3.05;;
13568;SDS011;6856;51.460;7.158;2023-07-08T08:39:52;4.45;;;3.03;;
13568;SDS011;6856;51.460;7.158;2023-07-08T08:42:30;3.70;;;2.88;;
13568;SDS011;6856;51.460;7.158;2023-07-08T08:45:08;4.28;;;3.50;;
13568;SDS011;6856;51.460;7.158;2023-07-08T08:47:50;3.80;;;3.17;;
13568;SDS011;6856;51.460;7.158;2023-07-08T08:50:31;5.35;;;3.40;;
13568;SDS011;6856;51.460;7.158;2023-07-08T08:53:12;4.80;;;3.63;;
13568;SDS011;6856;51.460;7.158;2023-07-08T08:55:50;3.97;;;3.10;;
13568;SDS011;6856;51.460;7.158;2023-07-08T08:58:35;4.03;;;3.35;;
13568;SDS011;6856;51.460;7.158;2023-07-08T09:01:16;5.97;;;3.35;;
13568;SDS011;6856;51.460;7.158;2023-07-08T09:03:51;5.05;;;3.25;;
13568;SDS011;6856;51.460;7.158;2023-07-08T09:06:31;4.20;;;3.10;;
13568;SDS011;6856;51.460;7.158;2023-07-08T09:09:09;4.45;;;3.40;;
13568;SDS011;6856;51.460;7.158;2023-07-08T09:11:50;4.22;;;3.33;;
13568;SDS011;6856;51.460;7.158;2023-07-08T09:14:32;5.65;;;3.58;;
13568;SDS011;6856;51.460;7.158;2023-07-08T09:17:11;4.32;;;3.50;;
13568;SDS011;6856;51.460;7.158;2023-07-08T09:19:58;4.95;;;3.40;;
13568;SDS011;6856;51.460;7.158;2023-07-08T09:22:51;4.57;;;3.30;;
13568;SDS011;6856;51.460;7.158;2023-07-08T09:25:34;4.63;;;3.65;;
13568;SDS011;6856;51.460;7.158;2023-07-08T09:28:14;4.15;;;3.28;;
13568;SDS011;6856;51.460;7.158;2023-07-08T09:30:51;4.40;;;3.20;;
13568;SDS011;6856;51.460;7.158;2023-07-08T09:33:26;4.30;;;3.00;;
13568;SDS011;6856;51.460;7.158;2023-07-08T09:36:04;6.35;;;3.50;;
13568;SDS011;6856;51.460;7.158;2023-07-08T09:38:51;4.07;;;3.13;;
13568;SDS011;6856;51.460;7.158;2023-07-08T09:41:30;3.90;;;3.10;;
13568;SDS011;6856;51.460;7.158;2023-07-08T09:44:16;3.97;;;3.10;;
13568;SDS011;6856;51.460;7.158;2023-07-08T09:47:00;4.85;;;3.47;;
13568;SDS011;6856;51.460;7.158;2023-07-08T09:49:35;4.57;;;3.45;;
13568;SDS011;6856;51.460;7.158;2023-07-08T09:52:11;4.30;;;3.15;;
13568;SDS011;6856;51.460;7.158;2023-07-08T09:54:46;4.20;;;3.22;;
13568;SDS011;6856;51.460;7.158;2023-07-08T09:57:28;3.97;;;2.85;;
13568;SDS011;6856;51.460;7.158;2023-07-08T10:00:07;4.40;;;3.00;;
13568;SDS011;6856;51.460;7.158;2023-07-08T10:02:54;4.18;;;2.97;;
13568;SDS011;6856;51.460;7.158;2023-07-08T10:05:31;5.95;;;3.47;;
13568;SDS011;6856;51.460;7.158;2023-07-08T10:08:12;3.55;;;2.55;;
13568;SDS011;6856;51.460;7.158;2023-07-08T10:10:52;3.47;;;2.53;;
13568;SDS011;6856;51.460;7.158;2023-07-08T10:13:36;5.05;;;2.85;;
13568;SDS011;6856;51.460;7.158;2023-07-08T10:16:15;3.80;;;2.72;;
13568;SDS011;6856;51.460;7.158;2023-07-08T10:19:09;4.05;;;2.65;;
13568;SDS011;6856;51.460;7.158;2023-07-08T10:21:51;4.00;;;2.63;;
13568;SDS011;6856;51.460;7.158;2023-07-08T10:24:45;2.88;;;2.35;;
13568;SDS011;6856;51.460;7.158;2023-07-08T10:27:36;3.67;;;2.20;;
13568;SDS011;6856;51.460;7.158;2023-07-08T10:30:23;3.83;;;2.38;;
13568;SDS011;6856;51.460;7.158;2023-07-08T10:33:04;3.28;;;2.70;;
13568;SDS011;6856;51.460;7.158;2023-07-08T10:36:13;3.25;;;2.55;;
13568;SDS011;6856;51.460;7.158;2023-07-08T10:39:03;3.40;;;2.40;;
13568;SDS011;6856;51.460;7.158;2023-07-08T10:42:07;4.82;;;2.80;;
13568;SDS011;6856;51.460;7.158;2023-07-08T10:45:05;3.35;;;2.65;;
13568;SDS011;6856;51.460;7.158;2023-07-08T10:47:50;4.68;;;2.30;;
13568;SDS011;6856;51.460;7.158;2023-07-08T10:50:48;3.60;;;2.70;;
13568;SDS011;6856;51.460;7.158;2023-07-08T10:57:06;3.60;;;2.63;;
13568;SDS011;6856;51.460;7.158;2023-07-08T11:00:07;2.90;;;2.38;;
13568;SDS011;6856;51.460;7.158;2023-07-08T11:03:00;3.53;;;2.60;;
13568;SDS011;6856;51.460;7.158;2023-07-08T11:06:12;3.63;;;2.38;;
13568;SDS011;6856;51.460;7.158;2023-07-08T11:08:53;4.95;;;3.00;;
13568;SDS011;6856;51.460;7.158;2023-07-08T11:11:36;3.35;;;2.40;;
13568;SDS011;6856;51.460;7.158;2023-07-08T11:14:20;4.30;;;2.72;;
13568;SDS011;6856;51.460;7.158;2023-07-08T11:17:04;4.60;;;2.80;;
13568;SDS011;6856;51.460;7.158;2023-07-08T11:19:57;3.67;;;2.63;;
13568;SDS011;6856;51.460;7.158;2023-07-08T11:22:46;3.20;;;2.45;;
13568;SDS011;6856;51.460;7.158;2023-07-08T11:25:25;3.67;;;2.75;;
13568;SDS011;6856;51.460;7.158;2023-07-08T11:28:04;3.40;;;2.45;;
13568;SDS011;6856;51.460;7.158;2023-07-08T11:30:49;3.10;;;2.15;;
13568;SDS011;6856;51.460;7.158;2023-07-08T11:33:25;3.70;;;2.42;;
13568;SDS011;6856;51.460;7.158;2023-07-08T11:35:59;3.58;;;2.75;;
13568;SDS011;6856;51.460;7.158;2023-07-08T11:38:44;3.88;;;2.88;;
13568;SDS011;6856;51.460;7.158;2023-07-08T11:41:22;3.00;;;2.25;;
13568;SDS011;6856;51.460;7.158;2023-07-08T11:44:04;3.35;;;2.60;;
13568;SDS011;6856;51.460;7.158;2023-07-08T11:46:39;3.83;;;2.78;;
13568;SDS011;6856;51.460;7.158;2023-07-08T11:49:28;3.95;;;2.80;;
13568;SDS011;6856;51.460;7.158;2023-07-08T11:52:03;3.25;;;2.47;;
13568;SDS011;6856;51.460;7.158;2023-07-08T11:54:38;4.15;;;2.53;;
13568;SDS011;6856;51.460;7.158;2023-07-08T11:57:23;2.97;;;2.22;;
13568;SDS011;6856;51.460;7.158;2023-07-08T12:00:11;4.15;;;2.45;;
13568;SDS011;6856;51.460;7.158;2023-07-08T12:02:52;3.30;;;2.40;;
13568;SDS011;6856;51.460;7.158;2023-07-08T12:05:30;3.90;;;2.17;;
13568;SDS011;6856;51.460;7.158;2023-07-08T12:08:11;3.10;;;2.47;;
13568;SDS011;6856;51.460;7.158;2023-07-08T12:10:48;3.45;;;2.40;;
13568;SDS011;6856;51.460;7.158;2023-07-08T12:13:25;3.53;;;2.45;;
13568;SDS011;6856;51.460;7.158;2023-07-08T12:16:02;2.40;;;2.15;;
13568;SDS011;6856;51.460;7.158;2023-07-08T12:18:43;3.33;;;2.50;;
13568;SDS011;6856;51.460;7.158;2023-07-08T12:21:18;2.55;;;2.03;;
13568;SDS011;6856;51.460;7.158;2023-07-08T12:23:55;3.97;;;2.25;;
13568;SDS011;6856;51.460;7.158;2023-07-08T12:26:36;3.42;;;2.53;;
13568;SDS011;6856;51.460;7.158;2023-07-08T12:29:11;3.67;;;2.63;;
13568;SDS011;6856;51.460;7.158;2023-07-08T12:31:48;3.20;;;2.40;;
13568;SDS011;6856;51.460;7.158;2023-07-08T12:34:22;3.85;;;2.83;;
13568;SDS011;6856;51.460;7.158;2023-07-08T12:36:59;3.15;;;2.60;;
13568;SDS011;6856;51.460;7.158;2023-07-08T12:39:34;3.13;;;2.28;;
13568;SDS011;6856;51.460;7.158;2023-07-08T12:42:09;3.38;;;2.50;;
13568;SDS011;6856;51.460;7.158;2023-07-08T12:44:46;4.60;;;2.47;;
13568;SDS011;6856;51.460;7.158;2023-07-08T12:47:22;3.70;;;2.53;;
13568;SDS011;6856;51.460;7.158;2023-07-08T12:49:57;3.75;;;2.33;;
13568;SDS011;6856;51.460;7.158;2023-07-08T12:52:31;4.07;;;2.50;;
13568;SDS011;6856;51.460;7.158;2023-07-08T12:55:08;3.83;;;2.45;;
13568;SDS011;6856;51.460;7.158;2023-07-08T12:57:44;3.78;;;2.47;;
13568;SDS011;6856;51.460;7.158;2023-07-08T13:00:29;3.65;;;2.40;;
13568;SDS011;6856;51.460;7.158;2023-07-08T13:03:14;2.97;;;2.30;;
13568;SDS011;6856;51.460;7.158;2023-07-08T13:05:53;4.60;;;2.80;;
13568;SDS011;6856;51.460;7.158;2023-07-08T13:08:30;3.97;;;2.42;;
13568;SDS011;6856;51.460;7.158;2023-07-08T13:11:12;3.67;;;2.28;;
13568;SDS011;6856;51.460;7.158;2023-07-08T13:13:50;4.65;;;2.75;;
13568;SDS011;6856;51.460;7.158;2023-07-08T13:16:31;3.40;;;2.30;;
13568;SDS011;6856;51.460;7.158;2023-07-08T13:19:09;3.28;;;2.25;;
13568;SDS011;6856;51.460;7.158;2023-07-08T13:21:46;4.00;;;2.80;;
13568;SDS011;6856;51.460;7.158;2023-07-08T13:24:21;4.05;;;2.42;;
13568;SDS011;6856;51.460;7.158;2023-07-08T13:26:56;3.53;;;2.60;;
13568;SDS011;6856;51.460;7.158;2023-07-08T13:29:33;3.17;;;2.40;;
13568;SDS011;6856;51.460;7.158;2023-07-08T13:32:09;3.60;;;2.70;;
13568;SDS011;6856;51.460;7.158;2023-07-08T13:34:45;3.45;;;2.50;;
13568;SDS011;6856;51.460;7.158;2023-07-08T13:37:22;3.72;;;2.40;;
13568;SDS011;6856;51.460;7.158;2023-07-08T13:39:57;3.78;;;2.28;;
13568;SDS011;6856;51.460;7.158;2023-07-08T13:42:31;2.90;;;2.40;;
13568;SDS011;6856;51.460;7.158;2023-07-08T13:45:05;4.00;;;2.80;;
13568;SDS011;6856;51.460;7.158;2023-07-08T13:47:58;2.78;;;2.28;;
13568;SDS011;6856;51.460;7.158;2023-07-08T13:50:47;4.10;;;2.58;;
13568;SDS011;6856;51.460;7.158;2023-07-08T13:53:33;2.72;;;2.22;;
13568;SDS011;6856;51.460;7.158;2023-07-08T13:56:20;2.67;;;2.00;;
13568;SDS011;6856;51.460;7.158;2023-07-08T13:59:00;3.75;;;2.35;;
13568;SDS011;6856;51.460;7.158;2023-07-08T14:01:37;3.53;;;2.63;;
13568;SDS011;6856;51.460;7.158;2023-07-08T14:04:15;2.65;;;2.17;;
13568;SDS011;6856;51.460;7.158;2023-07-08T14:06:54;3.58;;;2.30;;
13568;SDS011;6856;51.460;7.158;2023-07-08T14:09:28;3.45;;;2.50;;
13568;SDS011;6856;51.460;7.158;2023-07-08T14:12:01;4.30;;;2.70;;
13568;SDS011;6856;51.460;7.158;2023-07-08T14:14:36;3.40;;;2.30;;
13568;SDS011;6856;51.460;7.158;2023-07-08T14:17:10;3.38;;;2.30;;
13568;SDS011;6856;51.460;7.158;2023-07-08T14:19:50;4.35;;;2.30;;
13568;SDS011;6856;51.460;7.158;2023-07-08T14:22:27;4.00;;;2.40;;
13568;SDS011;6856;51.460;7.158;2023-07-08T14:25:05;3.28;;;2.38;;
13568;SDS011;6856;51.460;7.158;2023-07-08T14:27:42;3.30;;;2.40;;
13568;SDS011;6856;51.460;7.158;2023-07-08T14:30:16;3.95;;;2.20;;
13568;SDS011;6856;51.460;7.158;2023-07-08T14:32:50;3.58;;;2.30;;
13568;SDS011;6856;51.460;7.158;2023-07-08T14:35:24;2.72;;;2.20;;
13568;SDS011;6856;51.460;7.158;2023-07-08T14:38:04;3.88;;;2.60;;
13568;SDS011;6856;51.460;7.158;2023-07-08T14:40:44;3.75;;;2.55;;
13568;SDS011;6856;51.460;7.158;2023-07-08T14:43:21;3.75;;;2.50;;
13568;SDS011;6856;51.460;7.158;2023-07-08T14:46:01;2.78;;;2.10;;
13568;SDS011;6856;51.460;7.158;2023-07-08T14:48:37;2.80;;;2.20;;
13568;SDS011;6856;51.460;7.158;2023-07-08T14:51:11;2.50;;;1.80;;
13568;SDS011;6856;51.460;7.158;2023-07-08T14:53:47;3.70;;;2.30;;
13568;SDS011;6856;51.460;7.158;2023-07-08T14:56:24;4.25;;;2.38;;
13568;SDS011;6856;51.460;7.158;2023-07-08T14:58:59;4.07;;;2.50;;
13568;SDS011;6856;51.460;7.158;2023-07-08T15:01:35;3.05;;;2.35;;
13568;SDS011;6856;51.460;7.158;2023-07-08T15:04:10;3.75;;;2.15;;
13568;SDS011;6856;51.460;7.158;2023-07-08T15:06:47;2.85;;;1.88;;
13568;SDS011;6856;51.460;7.158;2023-07-08T15:09:23;3.67;;;2.38;;
13568;SDS011;6856;51.460;7.158;2023-07-08T15:11:57;3.13;;;2.40;;
13568;SDS011;6856;51.460;7.158;2023-07-08T15:14:32;2.88;;;2.10;;
13568;SDS011;6856;51.460;7.158;2023-07-08T15:17:10;3.60;;;2.38;;
13568;SDS011;6856;51.460;7.158;2023-07-08T15:19:49;3.72;;;2.40;;
13568;SDS011;6856;51.460;7.158;2023-07-08T15:22:23;3.15;;;2.28;;
13568;SDS011;6856;51.460;7.158;2023-07-08T15:24:59;4.03;;;2.60;;
13568;SDS011;6856;51.460;7.158;2023-07-08T15:27:33;3.45;;;2.45;;
13568;SDS011;6856;51.460;7.158;2023-07-08T15:30:13;3.75;;;2.60;;
13568;SDS011;6856;51.460;7.158;2023-07-08T15:32:50;3.00;;;2.28;;
13568;SDS011;6856;51.460;7.158;2023-07-08T15:35:27;3.95;;;2.65;;
13568;SDS011;6856;51.460;7.158;2023-07-08T15:38:04;4.13;;;2.90;;
13568;SDS011;6856;51.460;7.158;2023-07-08T15:40:39;3.13;;;2.35;;
13568;SDS011;6856;51.460;7.158;2023-07-08T15:43:13;5.35;;;2.50;;
13568;SDS011;6856;51.460;7.158;2023-07-08T15:45:48;3.60;;;2.55;;
13568;SDS011;6856;51.460;7.158;2023-07-08T15:48:23;3.10;;;2.17;;
13568;SDS011;6856;51.460;7.158;2023-07-08T15:50:57;3.97;;;2.45;;
13568;SDS011;6856;51.460;7.158;2023-07-08T15:53:31;4.90;;;2.70;;
13568;SDS011;6856;51.460;7.158;2023-07-08T15:56:10;3.58;;;2.47;;
13568;SDS011;6856;51.460;7.158;2023-07-08T15:58:48;3.80;;;2.70;;
13568;SDS011;6856;51.460;7.158;2023-07-08T16:01:22;3.38;;;2.55;;
13568;SDS011;6856;51.460;7.158;2023-07-08T16:03:58;5.53;;;2.70;;
13568;SDS011;6856;51.460;7.158;2023-07-08T16:06:32;4.60;;;2.60;;
13568;SDS011;6856;51.460;7.158;2023-07-08T16:09:06;3.15;;;2.30;;